Main page
METAR-TAF:

METAR-TAF

Airports :

Northeast Iowa Regional Airport

Charles City, Iowa, United States

latitude: 43-04N, longitude: 092-37W, elevation: 1125 ft

Current weather observation

The report was made 19 minutes ago, at 16:35 UTC
Wind 16 mph from the North
Temperature 66°F
Humidity 88%
Pressure 29.92 in. Hg
Visibility: 10 miles
Clear sky

METAR: KCCY 281635Z AUTO 35014KT 10SM CLR 19/17 A2992 RMK AO2

Time: 11:54 (16:54 UTC)


TAF: missing

Weather observations and forecasts of more than 4000 airports (METAR and TAF reports).

The available stations are represented by yellow and red dots on the map.

Hover mouse over dot to see the name of the station.

Then click to see weather observations and forecasts.

To change the map : click on the green buttons with a black cross to zoom in, on the green button with a dash to zoom out, or on the green arrows for adjacent maps.


METAR-TAF: